sensor_id;sensor_type;location;lat;lon;timestamp;pressure;altitude;pressure_sealevel;temperature;humidity
4449;BME280;2237;51.870;6.160;2023-07-28T00:01:30;100370.78;;;19.17;100.00
4449;BME280;2237;51.870;6.160;2023-07-28T00:03:56;100366.34;;;19.18;100.00
4449;BME280;2237;51.870;6.160;2023-07-28T00:06:24;100367.63;;;19.25;100.00
4449;BME280;2237;51.870;6.160;2023-07-28T00:08:50;100370.94;;;19.29;100.00
4449;BME280;2237;51.870;6.160;2023-07-28T00:11:17;100377.13;;;19.15;100.00
4449;BME280;2237;51.870;6.160;2023-07-28T00:13:43;100377.84;;;19.17;100.00
4449;BME280;2237;51.870;6.160;2023-07-28T00:16:10;100372.44;;;19.06;100.00
4449;BME280;2237;51.870;6.160;2023-07-28T00:18:36;100371.91;;;19.13;100.00
4449;BME280;2237;51.870;6.160;2023-07-28T00:21:04;100374.66;;;19.12;100.00
4449;BME280;2237;51.870;6.160;2023-07-28T00:23:31;100376.91;;;19.18;100.00
4449;BME280;2237;51.870;6.160;2023-07-28T00:25:57;100379.94;;;19.12;100.00
4449;BME280;2237;51.870;6.160;2023-07-28T00:28:24;100384.31;;;19.26;100.00
4449;BME280;2237;51.870;6.160;2023-07-28T00:30:51;100380.44;;;19.31;100.00
4449;BME280;2237;51.870;6.160;2023-07-28T00:33:17;100368.81;;;19.34;100.00
4449;BME280;2237;51.870;6.160;2023-07-28T00:35:44;100374.97;;;19.34;100.00
4449;BME280;2237;51.870;6.160;2023-07-28T00:38:10;100382.16;;;19.32;100.00
4449;BME280;2237;51.870;6.160;2023-07-28T00:40:36;100379.91;;;19.26;100.00
4449;BME280;2237;51.870;6.160;2023-07-28T00:43:03;100381.38;;;19.30;100.00
4449;BME280;2237;51.870;6.160;2023-07-28T00:45:30;100384.53;;;19.23;100.00
4449;BME280;2237;51.870;6.160;2023-07-28T00:47:59;100380.28;;;19.20;100.00
4449;BME280;2237;51.870;6.160;2023-07-28T00:50:27;100385.44;;;19.09;100.00
4449;BME280;2237;51.870;6.160;2023-07-28T00:52:55;100393.78;;;19.15;100.00
4449;BME280;2237;51.870;6.160;2023-07-28T00:55:22;100392.00;;;19.16;100.00
4449;BME280;2237;51.870;6.160;2023-07-28T00:57:50;100394.47;;;19.05;100.00
4449;BME280;2237;51.870;6.160;2023-07-28T01:00:16;100398.50;;;19.10;100.00
4449;BME280;2237;51.870;6.160;2023-07-28T01:02:43;100406.34;;;19.12;100.00
4449;BME280;2237;51.870;6.160;2023-07-28T01:05:10;100403.50;;;19.15;100.00
4449;BME280;2237;51.870;6.160;2023-07-28T01:07:43;100397.66;;;19.24;100.00
4449;BME280;2237;51.870;6.160;2023-07-28T01:10:23;100397.41;;;19.27;100.00
4449;BME280;2237;51.870;6.160;2023-07-28T01:12:51;100395.34;;;19.32;100.00
4449;BME280;2237;51.870;6.160;2023-07-28T01:15:17;100400.50;;;19.34;100.00
4449;BME280;2237;51.870;6.160;2023-07-28T01:17:44;100393.38;;;19.36;100.00
4449;BME280;2237;51.870;6.160;2023-07-28T01:20:11;100388.72;;;19.39;100.00
4449;BME280;2237;51.870;6.160;2023-07-28T01:28:16;100397.50;;;19.40;100.00
4449;BME280;2237;51.870;6.160;2023-07-28T01:30:43;100391.53;;;19.36;100.00
4449;BME280;2237;51.870;6.160;2023-07-28T01:33:10;100401.94;;;19.39;100.00
4449;BME280;2237;51.870;6.160;2023-07-28T01:35:37;100395.88;;;19.37;100.00
4449;BME280;2237;51.870;6.160;2023-07-28T01:38:06;100399.22;;;19.41;100.00
4449;BME280;2237;51.870;6.160;2023-07-28T01:40:32;100389.09;;;19.33;100.00
4449;BME280;2237;51.870;6.160;2023-07-28T01:42:59;100386.75;;;19.43;100.00
4449;BME280;2237;51.870;6.160;2023-07-28T01:45:25;100390.69;;;19.50;100.00
4449;BME280;2237;51.870;6.160;2023-07-28T01:47:52;100387.28;;;19.48;100.00
4449;BME280;2237;51.870;6.160;2023-07-28T01:50:18;100388.44;;;19.44;100.00
4449;BME280;2237;51.870;6.160;2023-07-28T01:52:45;100390.03;;;19.46;100.00
4449;BME280;2237;51.870;6.160;2023-07-28T01:55:11;100379.47;;;19.46;100.00
4449;BME280;2237;51.870;6.160;2023-07-28T01:57:39;100380.22;;;19.48;100.00
4449;BME280;2237;51.870;6.160;2023-07-28T02:00:06;100377.38;;;19.51;100.00
4449;BME280;2237;51.870;6.160;2023-07-28T02:02:33;100377.56;;;19.48;100.00
4449;BME280;2237;51.870;6.160;2023-07-28T02:04:59;100375.38;;;19.55;100.00
4449;BME280;2237;51.870;6.160;2023-07-28T02:07:26;100382.03;;;19.60;100.00
4449;BME280;2237;51.870;6.160;2023-07-28T02:09:52;100380.06;;;19.64;100.00
4449;BME280;2237;51.870;6.160;2023-07-28T02:12:19;100379.91;;;19.53;100.00
4449;BME280;2237;51.870;6.160;2023-07-28T02:14:45;100385.59;;;19.47;100.00
4449;BME280;2237;51.870;6.160;2023-07-28T02:17:11;100387.94;;;19.51;100.00
4449;BME280;2237;51.870;6.160;2023-07-28T02:19:38;100386.47;;;19.47;100.00
4449;BME280;2237;51.870;6.160;2023-07-28T02:22:05;100384.00;;;19.30;100.00
4449;BME280;2237;51.870;6.160;2023-07-28T02:24:33;100382.03;;;19.34;100.00
4449;BME280;2237;51.870;6.160;2023-07-28T02:26:59;100386.25;;;19.36;100.00
4449;BME280;2237;51.870;6.160;2023-07-28T02:29:25;100385.63;;;19.33;100.00
4449;BME280;2237;51.870;6.160;2023-07-28T02:31:52;100389.09;;;19.33;100.00
4449;BME280;2237;51.870;6.160;2023-07-28T02:34:18;100400.81;;;19.43;100.00
4449;BME280;2237;51.870;6.160;2023-07-28T02:36:45;100394.59;;;19.44;100.00
4449;BME280;2237;51.870;6.160;2023-07-28T02:39:11;100386.09;;;19.39;100.00
4449;BME280;2237;51.870;6.160;2023-07-28T02:41:37;100394.38;;;19.33;100.00
4449;BME280;2237;51.870;6.160;2023-07-28T02:44:04;100384.84;;;19.18;100.00
4449;BME280;2237;51.870;6.160;2023-07-28T02:46:30;100387.81;;;19.26;100.00
4449;BME280;2237;51.870;6.160;2023-07-28T02:48:57;100398.06;;;19.31;100.00
4449;BME280;2237;51.870;6.160;2023-07-28T02:51:23;100406.75;;;19.33;100.00
4449;BME280;2237;51.870;6.160;2023-07-28T02:53:50;100416.66;;;19.29;100.00
4449;BME280;2237;51.870;6.160;2023-07-28T02:56:16;100414.81;;;19.17;100.00
4449;BME280;2237;51.870;6.160;2023-07-28T02:58:42;100412.13;;;19.31;100.00
4449;BME280;2237;51.870;6.160;2023-07-28T03:01:09;100412.25;;;19.30;100.00
4449;BME280;2237;51.870;6.160;2023-07-28T03:03:35;100417.72;;;19.27;100.00
4449;BME280;2237;51.870;6.160;2023-07-28T03:06:02;100414.56;;;19.34;100.00
4449;BME280;2237;51.870;6.160;2023-07-28T03:08:28;100416.28;;;19.35;100.00
4449;BME280;2237;51.870;6.160;2023-07-28T03:10:58;100417.22;;;19.34;100.00
4449;BME280;2237;51.870;6.160;2023-07-28T03:13:24;100417.00;;;19.37;100.00
4449;BME280;2237;51.870;6.160;2023-07-28T03:15:51;100424.66;;;19.42;100.00
4449;BME280;2237;51.870;6.160;2023-07-28T03:18:17;100416.66;;;19.43;100.00
4449;BME280;2237;51.870;6.160;2023-07-28T03:20:44;100425.50;;;19.42;100.00
4449;BME280;2237;51.870;6.160;2023-07-28T03:23:10;100425.03;;;19.50;100.00
4449;BME280;2237;51.870;6.160;2023-07-28T03:25:36;100423.97;;;19.52;100.00
4449;BME280;2237;51.870;6.160;2023-07-28T03:28:03;100415.19;;;19.52;100.00
4449;BME280;2237;51.870;6.160;2023-07-28T03:30:29;100423.63;;;19.44;100.00
4449;BME280;2237;51.870;6.160;2023-07-28T03:32:56;100427.56;;;19.37;100.00
4449;BME280;2237;51.870;6.160;2023-07-28T03:35:23;100425.50;;;19.42;100.00
4449;BME280;2237;51.870;6.160;2023-07-28T03:37:49;100428.06;;;19.44;100.00
4449;BME280;2237;51.870;6.160;2023-07-28T03:40:16;100425.88;;;19.36;100.00
4449;BME280;2237;51.870;6.160;2023-07-28T03:42:42;100416.94;;;19.39;100.00
4449;BME280;2237;51.870;6.160;2023-07-28T03:45:09;100426.25;;;19.30;100.00
4449;BME280;2237;51.870;6.160;2023-07-28T03:47:36;100420.03;;;19.45;100.00
4449;BME280;2237;51.870;6.160;2023-07-28T03:50:03;100431.59;;;19.57;100.00
4449;BME280;2237;51.870;6.160;2023-07-28T03:52:30;100427.75;;;19.48;100.00
4449;BME280;2237;51.870;6.160;2023-07-28T03:54:56;100436.22;;;19.53;100.00
4449;BME280;2237;51.870;6.160;2023-07-28T03:57:22;100434.28;;;19.43;100.00
4449;BME280;2237;51.870;6.160;2023-07-28T03:59:49;100430.91;;;19.41;100.00
4449;BME280;2237;51.870;6.160;2023-07-28T04:02:15;100436.84;;;19.44;100.00
4449;BME280;2237;51.870;6.160;2023-07-28T04:04:42;100434.94;;;19.32;100.00
4449;BME280;2237;51.870;6.160;2023-07-28T04:07:08;100442.09;;;19.30;100.00
4449;BME280;2237;51.870;6.160;2023-07-28T04:09:34;100434.75;;;19.35;100.00
4449;BME280;2237;51.870;6.160;2023-07-28T04:12:01;100436.06;;;19.42;100.00
4449;BME280;2237;51.870;6.160;2023-07-28T04:14:27;100442.31;;;19.41;100.00
4449;BME280;2237;51.870;6.160;2023-07-28T04:16:53;100436.06;;;19.42;100.00
4449;BME280;2237;51.870;6.160;2023-07-28T04:19:20;100446.25;;;19.48;100.00
4449;BME280;2237;51.870;6.160;2023-07-28T04:21:46;100442.66;;;19.49;100.00
4449;BME280;2237;51.870;6.160;2023-07-28T04:24:13;100446.25;;;19.48;100.00
4449;BME280;2237;51.870;6.160;2023-07-28T04:26:39;100442.66;;;19.49;100.00
4449;BME280;2237;51.870;6.160;2023-07-28T04:29:06;100444.84;;;19.43;100.00
4449;BME280;2237;51.870;6.160;2023-07-28T04:31:32;100453.25;;;19.35;100.00
4449;BME280;2237;51.870;6.160;2023-07-28T04:33:59;100466.75;;;19.16;100.00
4449;BME280;2237;51.870;6.160;2023-07-28T04:36:26;100465.06;;;19.30;100.00
4449;BME280;2237;51.870;6.160;2023-07-28T04:38:53;100459.66;;;19.31;100.00
4449;BME280;2237;51.870;6.160;2023-07-28T04:41:19;100454.91;;;19.36;100.00
4449;BME280;2237;51.870;6.160;2023-07-28T04:43:46;100461.44;;;19.45;100.00
4449;BME280;2237;51.870;6.160;2023-07-28T04:46:12;100463.25;;;19.44;100.00
4449;BME280;2237;51.870;6.160;2023-07-28T04:48:39;100462.69;;;19.39;100.00
4449;BME280;2237;51.870;6.160;2023-07-28T04:51:07;100473.34;;;19.24;100.00
4449;BME280;2237;51.870;6.160;2023-07-28T04:53:33;100480.97;;;19.42;100.00
4449;BME280;2237;51.870;6.160;2023-07-28T04:56:00;100478.69;;;19.36;100.00
4449;BME280;2237;51.870;6.160;2023-07-28T04:58:27;100476.47;;;19.44;100.00
4449;BME280;2237;51.870;6.160;2023-07-28T05:00:53;100478.25;;;19.30;100.00
4449;BME280;2237;51.870;6.160;2023-07-28T05:03:20;100472.00;;;19.45;100.00
4449;BME280;2237;51.870;6.160;2023-07-28T05:05:47;100479.19;;;19.43;100.00
4449;BME280;2237;51.870;6.160;2023-07-28T05:08:13;100465.38;;;19.52;100.00
4449;BME280;2237;51.870;6.160;2023-07-28T05:10:41;100477.75;;;19.51;100.00
4449;BME280;2237;51.870;6.160;2023-07-28T05:13:09;100472.06;;;19.57;100.00
4449;BME280;2237;51.870;6.160;2023-07-28T05:15:35;100467.69;;;19.70;100.00
4449;BME280;2237;51.870;6.160;2023-07-28T05:18:02;100468.50;;;19.71;100.00
4449;BME280;2237;51.870;6.160;2023-07-28T05:20:28;100461.84;;;19.65;100.00
4449;BME280;2237;51.870;6.160;2023-07-28T05:22:55;100473.75;;;19.58;100.00
4449;BME280;2237;51.870;6.160;2023-07-28T05:25:21;100476.28;;;19.60;100.00
4449;BME280;2237;51.870;6.160;2023-07-28T05:27:48;100476.00;;;19.64;100.00
4449;BME280;2237;51.870;6.160;2023-07-28T05:30:15;100470.56;;;19.53;100.00
4449;BME280;2237;51.870;6.160;2023-07-28T05:32:41;100472.06;;;19.57;100.00
4449;BME280;2237;51.870;6.160;2023-07-28T05:35:08;100470.16;;;19.59;100.00
4449;BME280;2237;51.870;6.160;2023-07-28T05:37:35;100481.97;;;19.54;100.00
4449;BME280;2237;51.870;6.160;2023-07-28T05:40:01;100483.38;;;19.59;100.00
4449;BME280;2237;51.870;6.160;2023-07-28T05:42:28;100496.56;;;19.59;100.00
4449;BME280;2237;51.870;6.160;2023-07-28T05:44:55;100486.78;;;19.61;100.00
4449;BME280;2237;51.870;6.160;2023-07-28T05:47:21;100497.22;;;19.63;100.00
4449;BME280;2237;51.870;6.160;2023-07-28T05:49:48;100490.00;;;19.52;100.00
4449;BME280;2237;51.870;6.160;2023-07-28T05:52:14;100497.22;;;19.63;100.00
4449;BME280;2237;51.870;6.160;2023-07-28T05:54:41;100502.97;;;19.69;100.00
4449;BME280;2237;51.870;6.160;2023-07-28T05:57:07;100490.84;;;19.80;100.00
4449;BME280;2237;51.870;6.160;2023-07-28T05:59:33;100504.16;;;19.78;100.00
4449;BME280;2237;51.870;6.160;2023-07-28T06:02:00;100505.16;;;19.90;100.00
4449;BME280;2237;51.870;6.160;2023-07-28T06:04:26;100510.25;;;19.93;100.00
4449;BME280;2237;51.870;6.160;2023-07-28T06:06:53;100509.50;;;19.91;100.00
4449;BME280;2237;51.870;6.160;2023-07-28T06:09:20;100516.81;;;20.00;100.00
4449;BME280;2237;51.870;6.160;2023-07-28T06:11:46;100506.69;;;20.06;100.00
4449;BME280;2237;51.870;6.160;2023-07-28T06:14:12;100506.78;;;20.05;100.00
4449;BME280;2237;51.870;6.160;2023-07-28T06:16:39;100510.31;;;20.18;100.00
4449;BME280;2237;51.870;6.160;2023-07-28T06:19:06;100515.78;;;20.15;100.00
4449;BME280;2237;51.870;6.160;2023-07-28T06:21:32;100515.06;;;20.13;100.00
4449;BME280;2237;51.870;6.160;2023-07-28T06:23:59;100508.97;;;20.25;100.00
4449;BME280;2237;51.870;6.160;2023-07-28T06:26:26;100515.44;;;20.34;100.00
4449;BME280;2237;51.870;6.160;2023-07-28T06:28:52;100514.84;;;20.43;100.00
4449;BME280;2237;51.870;6.160;2023-07-28T06:31:19;100518.94;;;20.47;100.00
4449;BME280;2237;51.870;6.160;2023-07-28T06:33:47;100509.13;;;20.49;100.00
4449;BME280;2237;51.870;6.160;2023-07-28T06:36:13;100522.69;;;20.57;100.00
4449;BME280;2237;51.870;6.160;2023-07-28T06:38:40;100517.59;;;20.66;100.00
4449;BME280;2237;51.870;6.160;2023-07-28T06:41:06;100523.31;;;20.60;100.00
4449;BME280;2237;51.870;6.160;2023-07-28T06:43:32;100522.66;;;20.69;100.00
4449;BME280;2237;51.870;6.160;2023-07-28T06:45:59;100521.00;;;20.68;100.00
4449;BME280;2237;51.870;6.160;2023-07-28T06:48:26;100520.56;;;20.62;100.00
4449;BME280;2237;51.870;6.160;2023-07-28T06:50:52;100526.91;;;20.72;100.00
4449;BME280;2237;51.870;6.160;2023-07-28T06:53:20;100532.72;;;20.77;100.00
4449;BME280;2237;51.870;6.160;2023-07-28T06:55:46;100532.19;;;20.84;100.00
4449;BME280;2237;51.870;6.160;2023-07-28T06:58:13;100539.84;;;20.89;100.00
4449;BME280;2237;51.870;6.160;2023-07-28T07:00:39;100541.00;;;20.98;100.00
4449;BME280;2237;51.870;6.160;2023-07-28T07:03:06;100534.72;;;20.99;100.00
4449;BME280;2237;51.870;6.160;2023-07-28T07:05:32;100539.72;;;20.91;100.00
4449;BME280;2237;51.870;6.160;2023-07-28T07:07:59;100544.50;;;20.98;100.00
4449;BME280;2237;51.870;6.160;2023-07-28T07:10:27;100547.97;;;20.99;100.00
4449;BME280;2237;51.870;6.160;2023-07-28T07:12:53;100553.03;;;21.02;100.00
4449;BME280;2237;51.870;6.160;2023-07-28T07:15:19;100549.66;;;21.00;100.00
4449;BME280;2237;51.870;6.160;2023-07-28T07:17:46;100558.25;;;21.03;100.00
4449;BME280;2237;51.870;6.160;2023-07-28T07:20:12;100559.09;;;20.91;100.00
4449;BME280;2237;51.870;6.160;2023-07-28T07:22:39;100563.09;;;20.84;100.00
4449;BME280;2237;51.870;6.160;2023-07-28T07:25:06;100567.44;;;20.72;100.00
4449;BME280;2237;51.870;6.160;2023-07-28T07:27:33;100573.19;;;20.66;100.00
4449;BME280;2237;51.870;6.160;2023-07-28T07:29:59;100571.78;;;20.73;100.00
4449;BME280;2237;51.870;6.160;2023-07-28T07:32:26;100576.34;;;20.84;100.00
4449;BME280;2237;51.870;6.160;2023-07-28T07:34:52;100570.72;;;20.51;100.00
4449;BME280;2237;51.870;6.160;2023-07-28T07:37:19;100583.81;;;20.52;100.00
4449;BME280;2237;51.870;6.160;2023-07-28T07:39:46;100581.72;;;20.70;100.00
4449;BME280;2237;51.870;6.160;2023-07-28T07:42:12;100570.94;;;20.73;100.00
4449;BME280;2237;51.870;6.160;2023-07-28T07:44:41;100578.16;;;20.96;100.00
4449;BME280;2237;51.870;6.160;2023-07-28T07:47:12;100575.19;;;21.38;100.00
4449;BME280;2237;51.870;6.160;2023-07-28T07:49:40;100584.47;;;21.57;100.00
4449;BME280;2237;51.870;6.160;2023-07-28T07:52:07;100575.31;;;21.73;100.00
4449;BME280;2237;51.870;6.160;2023-07-28T07:54:34;100581.34;;;21.75;100.00
4449;BME280;2237;51.870;6.160;2023-07-28T07:57:00;100582.25;;;21.87;100.00
4449;BME280;2237;51.870;6.160;2023-07-28T07:59:27;100583.56;;;21.94;100.00
4449;BME280;2237;51.870;6.160;2023-07-28T08:01:57;100581.75;;;21.82;100.00
4449;BME280;2237;51.870;6.160;2023-07-28T08:04:26;100586.22;;;21.81;100.00
4449;BME280;2237;51.870;6.160;2023-07-28T08:06:54;100579.66;;;21.74;100.00
4449;BME280;2237;51.870;6.160;2023-07-28T08:09:20;100586.31;;;21.80;100.00
4449;BME280;2237;51.870;6.160;2023-07-28T08:12:06;100581.63;;;21.83;100.00
4449;BME280;2237;51.870;6.160;2023-07-28T08:14:33;100586.06;;;21.95;100.00
4449;BME280;2237;51.870;6.160;2023-07-28T08:17:00;100592.00;;;21.99;100.00
4449;BME280;2237;51.870;6.160;2023-07-28T08:19:26;100589.81;;;22.17;100.00
4449;BME280;2237;51.870;6.160;2023-07-28T08:21:53;100588.19;;;22.38;100.00
4449;BME280;2237;51.870;6.160;2023-07-28T08:24:19;100582.34;;;22.57;100.00
4449;BME280;2237;51.870;6.160;2023-07-28T08:26:46;100584.75;;;22.94;100.00
4449;BME280;2237;51.870;6.160;2023-07-28T08:29:13;100582.50;;;23.23;100.00
4449;BME280;2237;51.870;6.160;2023-07-28T08:31:39;100580.22;;;23.19;100.00
4449;BME280;2237;51.870;6.160;2023-07-28T08:34:05;100579.59;;;23.26;100.00
4449;BME280;2237;51.870;6.160;2023-07-28T08:36:32;100567.53;;;23.33;100.00
4449;BME280;2237;51.870;6.160;2023-07-28T08:38:58;100578.53;;;23.40;100.00
4449;BME280;2237;51.870;6.160;2023-07-28T08:41:24;100583.34;;;23.35;100.00
4449;BME280;2237;51.870;6.160;2023-07-28T08:43:52;100586.81;;;23.13;100.00
4449;BME280;2237;51.870;6.160;2023-07-28T08:46:20;100585.00;;;23.02;100.00
4449;BME280;2237;51.870;6.160;2023-07-28T08:48:46;100580.78;;;23.00;100.00
4449;BME280;2237;51.870;6.160;2023-07-28T08:51:13;100582.00;;;23.07;100.00
4449;BME280;2237;51.870;6.160;2023-07-28T08:53:40;100579.97;;;23.22;100.00
4449;BME280;2237;51.870;6.160;2023-07-28T08:56:06;100589.41;;;23.59;100.00
4449;BME280;2237;51.870;6.160;2023-07-28T08:58:33;100589.97;;;23.62;100.00
4449;BME280;2237;51.870;6.160;2023-07-28T09:00:59;100589.66;;;23.56;100.00
4449;BME280;2237;51.870;6.160;2023-07-28T09:03:29;100592.41;;;23.54;100.00
4449;BME280;2237;51.870;6.160;2023-07-28T09:06:00;100600.28;;;23.56;100.00
4449;BME280;2237;51.870;6.160;2023-07-28T09:08:30;100585.50;;;23.63;100.00
4449;BME280;2237;51.870;6.160;2023-07-28T09:11:01;100594.22;;;23.43;100.00
4449;BME280;2237;51.870;6.160;2023-07-28T09:13:35;100597.34;;;23.37;100.00
4449;BME280;2237;51.870;6.160;2023-07-28T09:16:02;100600.00;;;23.37;100.00
4449;BME280;2237;51.870;6.160;2023-07-28T09:18:29;100598.31;;;23.36;100.00
4449;BME280;2237;51.870;6.160;2023-07-28T09:20:56;100597.13;;;23.51;100.00
4449;BME280;2237;51.870;6.160;2023-07-28T09:23:30;100599.25;;;23.90;100.00
4449;BME280;2237;51.870;6.160;2023-07-28T09:25:59;100590.53;;;23.99;100.00
4449;BME280;2237;51.870;6.160;2023-07-28T09:28:38;100604.06;;;23.96;100.00
4449;BME280;2237;51.870;6.160;2023-07-28T09:31:05;100590.47;;;24.22;100.00
4449;BME280;2237;51.870;6.160;2023-07-28T09:33:33;100596.75;;;24.21;100.00
4449;BME280;2237;51.870;6.160;2023-07-28T09:36:11;100583.81;;;24.48;100.00
4449;BME280;2237;51.870;6.160;2023-07-28T09:38:39;100596.03;;;24.50;100.00
4449;BME280;2237;51.870;6.160;2023-07-28T09:41:09;100591.44;;;24.52;100.00
4449;BME280;2237;51.870;6.160;2023-07-28T09:43:38;100596.69;;;24.43;100.00
4449;BME280;2237;51.870;6.160;2023-07-28T09:46:07;100602.94;;;24.21;100.00
4449;BME280;2237;51.870;6.160;2023-07-28T09:48:37;100603.09;;;24.08;100.00
4449;BME280;2237;51.870;6.160;2023-07-28T09:51:06;100606.41;;;23.79;100.00
4449;BME280;2237;51.870;6.160;2023-07-28T09:53:40;100606.50;;;23.77;100.00
4449;BME280;2237;51.870;6.160;2023-07-28T09:56:13;100601.81;;;23.81;100.00
4449;BME280;2237;51.870;6.160;2023-07-28T09:58:41;100601.16;;;24.10;100.00
4449;BME280;2237;51.870;6.160;2023-07-28T10:01:10;100602.00;;;24.43;100.00
4449;BME280;2237;51.870;6.160;2023-07-28T10:03:37;100592.13;;;24.34;100.00
4449;BME280;2237;51.870;6.160;2023-07-28T10:06:04;100598.41;;;23.90;100.00
4449;BME280;2237;51.870;6.160;2023-07-28T10:08:32;100595.38;;;24.37;100.00
4449;BME280;2237;51.870;6.160;2023-07-28T10:10:59;100590.91;;;24.79;100.00
4449;BME280;2237;51.870;6.160;2023-07-28T10:13:27;100596.41;;;25.28;100.00
4449;BME280;2237;51.870;6.160;2023-07-28T10:15:54;100600.34;;;25.24;100.00
4449;BME280;2237;51.870;6.160;2023-07-28T10:18:21;100598.47;;;24.74;100.00
4449;BME280;2237;51.870;6.160;2023-07-28T10:20:49;100606.34;;;24.44;100.00
4449;BME280;2237;51.870;6.160;2023-07-28T10:23:22;100609.84;;;24.12;100.00
4449;BME280;2237;51.870;6.160;2023-07-28T10:25:57;100614.22;;;24.02;100.00
4449;BME280;2237;51.870;6.160;2023-07-28T10:28:31;100617.88;;;23.90;100.00
4449;BME280;2237;51.870;6.160;2023-07-28T10:30:59;100616.63;;;24.16;100.00
4449;BME280;2237;51.870;6.160;2023-07-28T10:33:28;100616.22;;;23.67;100.00
4449;BME280;2237;51.870;6.160;2023-07-28T10:35:55;100621.53;;;23.78;100.00
4449;BME280;2237;51.870;6.160;2023-07-28T10:38:31;100615.25;;;23.68;100.00
4449;BME280;2237;51.870;6.160;2023-07-28T10:41:27;100615.34;;;23.78;100.00
4449;BME280;2237;51.870;6.160;2023-07-28T10:43:52;100604.63;;;23.68;100.00
4449;BME280;2237;51.870;6.160;2023-07-28T10:46:21;100615.25;;;23.79;100.00
4449;BME280;2237;51.870;6.160;2023-07-28T10:48:49;100609.16;;;24.10;100.00
4449;BME280;2237;51.870;6.160;2023-07-28T10:51:23;100614.06;;;24.58;100.00
4449;BME280;2237;51.870;6.160;2023-07-28T10:53:56;100604.94;;;24.92;100.00
4449;BME280;2237;51.870;6.160;2023-07-28T10:56:22;100601.47;;;25.32;100.00
4449;BME280;2237;51.870;6.160;2023-07-28T10:58:59;100601.25;;;25.84;100.00
4449;BME280;2237;51.870;6.160;2023-07-28T11:01:31;100602.28;;;26.02;100.00
4449;BME280;2237;51.870;6.160;2023-07-28T11:04:15;100598.94;;;26.38;100.00
4449;BME280;2237;51.870;6.160;2023-07-28T11:06:43;100595.88;;;26.53;100.00
4449;BME280;2237;51.870;6.160;2023-07-28T11:09:11;100595.72;;;26.45;100.00
4449;BME280;2237;51.870;6.160;2023-07-28T11:11:38;100605.31;;;26.37;100.00
4449;BME280;2237;51.870;6.160;2023-07-28T11:14:05;100611.53;;;25.98;100.00
4449;BME280;2237;51.870;6.160;2023-07-28T11:16:38;100605.97;;;26.30;100.00
4449;BME280;2237;51.870;6.160;2023-07-28T11:19:10;100618.91;;;26.25;100.00
4449;BME280;2237;51.870;6.160;2023-07-28T11:21:41;100614.16;;;26.57;100.00
4449;BME280;2237;51.870;6.160;2023-07-28T11:24:08;100610.50;;;26.49;100.00
4449;BME280;2237;51.870;6.160;2023-07-28T11:26:36;100610.31;;;26.98;100.00
4449;BME280;2237;51.870;6.160;2023-07-28T11:29:04;100606.69;;;27.45;100.00
4449;BME280;2237;51.870;6.160;2023-07-28T11:31:31;100597.66;;;27.74;100.00
4449;BME280;2237;51.870;6.160;2023-07-28T11:33:57;100608.31;;;28.01;100.00
4449;BME280;2237;51.870;6.160;2023-07-28T11:36:26;100601.91;;;27.67;100.00
4449;BME280;2237;51.870;6.160;2023-07-28T11:38:54;100601.34;;;27.63;100.00
4449;BME280;2237;51.870;6.160;2023-07-28T11:41:21;100611.47;;;27.42;100.00
4449;BME280;2237;51.870;6.160;2023-07-28T11:43:49;100615.69;;;26.79;100.00
4449;BME280;2237;51.870;6.160;2023-07-28T11:46:51;100618.22;;;26.90;100.00
4449;BME280;2237;51.870;6.160;2023-07-28T11:49:21;100616.44;;;27.27;100.00
4449;BME280;2237;51.870;6.160;2023-07-28T11:51:50;100615.19;;;27.22;100.00
4449;BME280;2237;51.870;6.160;2023-07-28T11:54:20;100609.03;;;27.76;100.00
4449;BME280;2237;51.870;6.160;2023-07-28T11:56:49;100607.47;;;28.28;99.83
4449;BME280;2237;51.870;6.160;2023-07-28T11:59:17;100605.84;;;28.52;99.97
4449;BME280;2237;51.870;6.160;2023-07-28T12:02:01;100610.06;;;28.37;99.35
4449;BME280;2237;51.870;6.160;2023-07-28T12:04:35;100607.06;;;28.58;96.95
4449;BME280;2237;51.870;6.160;2023-07-28T12:07:13;100608.38;;;28.72;94.76
4449;BME280;2237;51.870;6.160;2023-07-28T12:09:47;100612.06;;;28.18;98.00
4449;BME280;2237;51.870;6.160;2023-07-28T12:12:24;100608.22;;;28.20;98.58
4449;BME280;2237;51.870;6.160;2023-07-28T12:14:52;100607.53;;;28.36;97.48
4449;BME280;2237;51.870;6.160;2023-07-28T12:17:25;100610.19;;;28.53;97.74
4449;BME280;2237;51.870;6.160;2023-07-28T12:20:13;100608.75;;;27.79;99.09
4449;BME280;2237;51.870;6.160;2023-07-28T12:22:44;100598.91;;;27.79;100.00
4449;BME280;2237;51.870;6.160;2023-07-28T12:25:11;100604.13;;;27.98;100.00
4449;BME280;2237;51.870;6.160;2023-07-28T12:27:38;100610.63;;;27.96;100.00
4449;BME280;2237;51.870;6.160;2023-07-28T12:30:05;100608.06;;;27.49;100.00
4449;BME280;2237;51.870;6.160;2023-07-28T12:32:41;100605.38;;;27.77;100.00
4449;BME280;2237;51.870;6.160;2023-07-28T12:35:27;100604.97;;;27.99;100.00
4449;BME280;2237;51.870;6.160;2023-07-28T12:38:02;100610.91;;;28.20;96.92
4449;BME280;2237;51.870;6.160;2023-07-28T12:40:34;100612.75;;;28.37;97.16
4449;BME280;2237;51.870;6.160;2023-07-28T12:43:04;100613.72;;;28.36;96.93
4449;BME280;2237;51.870;6.160;2023-07-28T12:45:32;100615.66;;;28.62;96.90
4449;BME280;2237;51.870;6.160;2023-07-28T12:48:01;100606.47;;;28.82;94.23
4449;BME280;2237;51.870;6.160;2023-07-28T12:50:28;100601.47;;;29.12;89.32
4449;BME280;2237;51.870;6.160;2023-07-28T12:52:54;100610.19;;;28.89;89.48
4449;BME280;2237;51.870;6.160;2023-07-28T12:55:24;100611.56;;;29.19;90.87
4449;BME280;2237;51.870;6.160;2023-07-28T12:57:53;100610.25;;;28.79;90.72
4449;BME280;2237;51.870;6.160;2023-07-28T13:00:20;100602.56;;;29.02;88.07
4449;BME280;2237;51.870;6.160;2023-07-28T13:02:50;100609.41;;;29.48;85.78
4449;BME280;2237;51.870;6.160;2023-07-28T13:05:17;100610.94;;;29.58;81.13
4449;BME280;2237;51.870;6.160;2023-07-28T13:07:43;100610.47;;;29.29;83.60
4449;BME280;2237;51.870;6.160;2023-07-28T13:10:12;100611.44;;;29.54;84.38